Time;durP1;ratioP1;P1;durP2;ratioP2;P2;SDS_P1;SDS_P2;PMS_P1;PMS_P2;Temp;Humidity;BMP_temperature;BMP_pressure;BME280_temperature;BME280_humidity;BME280_pressure;Samples;Min_cycle;Max_cycle;Signal;HPM_P1;HPM_P2
2023/08/29 00:00:26;;;;;;;11.60;7.40;;;12.70;99.90;;;;;;5022666;28;20129;-65
2023/08/29 00:02:53;;;;;;;8.30;7.22;;;12.70;99.90;;;;;;5021897;28;20047;-64
2023/08/29 00:05:19;;;;;;;12.40;7.18;;;12.70;99.90;;;;;;5006858;28;20057;-64
2023/08/29 00:07:45;;;;;;;7.97;7.18;;;12.60;99.90;;;;;;5022481;28;20049;-64
2023/08/29 00:10:11;;;;;;;9.05;6.85;;;12.50;99.90;;;;;;5020728;28;20501;-64
2023/08/29 00:12:38;;;;;;;7.85;6.85;;;12.60;99.90;;;;;;5023320;28;20045;-63
2023/08/29 00:15:05;;;;;;;9.27;6.95;;;12.60;99.90;;;;;;5021625;28;20141;-66
2023/08/29 00:17:31;;;;;;;8.40;7.18;;;12.60;99.90;;;;;;5021379;28;20041;-66
2023/08/29 00:19:56;;;;;;;11.23;7.55;;;12.50;99.90;;;;;;5020992;28;20095;-66
2023/08/29 00:22:22;;;;;;;12.35;7.43;;;12.40;99.90;;;;;;5021640;28;20046;-65
2023/08/29 00:24:48;;;;;;;11.30;7.18;;;12.40;99.90;;;;;;5005283;28;20437;-68
2023/08/29 00:27:14;;;;;;;10.65;7.65;;;12.40;99.90;;;;;;5021266;28;20076;-65
2023/08/29 00:29:42;;;;;;;7.90;6.90;;;12.40;99.90;;;;;;5021995;28;20041;-65
2023/08/29 00:32:09;;;;;;;11.77;7.82;;;12.30;99.90;;;;;;5022513;28;20099;-65
2023/08/29 00:34:55;;;;;;;7.95;7.15;;;12.40;99.90;;;;;;5001882;28;20060;-65
2023/08/29 00:37:22;;;;;;;9.88;7.88;;;12.40;99.90;;;;;;5023469;28;20041;-65
2023/08/29 00:39:48;;;;;;;9.48;7.45;;;12.30;99.90;;;;;;4981270;28;20045;-66
2023/08/29 00:42:13;;;;;;;8.63;7.32;;;12.30;99.90;;;;;;5004132;28;20496;-65
2023/08/29 00:44:39;;;;;;;9.30;7.75;;;12.20;99.90;;;;;;4997120;28;20045;-65
2023/08/29 00:47:05;;;;;;;8.65;7.75;;;12.20;99.90;;;;;;5021458;28;20053;-65
2023/08/29 00:49:31;;;;;;;8.93;8.02;;;12.10;99.90;;;;;;5002449;28;20052;-65
2023/08/29 00:51:59;;;;;;;11.48;7.80;;;12.10;99.90;;;;;;5005575;28;20117;-67
2023/08/29 00:54:25;;;;;;;9.30;7.63;;;12.10;99.90;;;;;;5020626;28;20303;-65
2023/08/29 00:56:51;;;;;;;10.45;7.97;;;12.00;99.90;;;;;;5021734;28;20119;-65
2023/08/29 00:59:17;;;;;;;9.82;7.63;;;11.90;99.90;;;;;;5021150;28;20045;-65
2023/08/29 01:01:45;;;;;;;11.32;8.73;;;12.00;99.90;;;;;;5004849;28;20056;-65
2023/08/29 01:04:11;;;;;;;9.73;8.63;;;11.90;99.90;;;;;;5023408;28;20496;-65
2023/08/29 01:06:37;;;;;;;12.65;8.45;;;11.90;99.90;;;;;;5021553;28;20785;-65
2023/08/29 01:09:06;;;;;;;11.45;8.43;;;11.90;99.90;;;;;;5022243;28;20421;-65
2023/08/29 01:11:51;;;;;;;11.90;7.88;;;11.80;99.90;;;;;;4989804;28;20058;-66
2023/08/29 01:14:46;;;;;;;9.80;7.38;;;11.80;99.90;;;;;;5022022;28;20033;-65
2023/08/29 01:17:21;;;;;;;8.50;7.60;;;11.80;99.90;;;;;;5002837;28;20144;-64
2023/08/29 01:19:51;;;;;;;8.90;7.80;;;11.80;99.90;;;;;;5004855;28;20135;-65
2023/08/29 01:22:37;;;;;;;12.15;8.15;;;11.80;99.90;;;;;;5022822;28;20052;-65
2023/08/29 01:25:13;;;;;;;12.30;7.78;;;11.90;99.90;;;;;;5026048;28;20451;-65
2023/08/29 01:27:59;;;;;;;9.98;7.85;;;11.70;99.90;;;;;;5024016;28;20144;-65
2023/08/29 01:30:28;;;;;;;7.97;6.50;;;11.90;99.90;;;;;;5024412;28;20060;-65
2023/08/29 01:32:55;;;;;;;8.65;7.80;;;11.80;99.90;;;;;;5025815;28;20496;-65
2023/08/29 01:35:22;;;;;;;10.93;8.60;;;11.70;99.90;;;;;;5009168;28;20107;-64
2023/08/29 01:37:48;;;;;;;11.27;8.68;;;11.70;99.90;;;;;;5027130;28;20067;-65
2023/08/29 01:40:13;;;;;;;12.80;8.00;;;11.60;99.90;;;;;;5024958;28;20033;-65
2023/08/29 01:42:39;;;;;;;11.00;8.68;;;11.60;99.90;;;;;;5025102;28;20037;-64
2023/08/29 01:45:05;;;;;;;12.88;8.52;;;11.70;99.90;;;;;;5025326;28;20120;-66
2023/08/29 01:47:31;;;;;;;12.82;7.95;;;11.50;99.90;;;;;;5007422;28;20041;-65
2023/08/29 01:49:59;;;;;;;9.35;8.32;;;11.50;99.90;;;;;;5006625;28;20056;-66
2023/08/29 01:52:25;;;;;;;11.88;9.20;;;11.60;99.90;;;;;;5026096;28;20142;-66
2023/08/29 01:54:51;;;;;;;13.88;9.60;;;11.60;99.90;;;;;;5023954;28;20084;-64
2023/08/29 01:57:19;;;;;;;9.60;7.75;;;11.40;99.90;;;;;;5023916;28;20038;-65
2023/08/29 01:59:46;;;;;;;10.00;8.43;;;11.50;99.90;;;;;;5024596;28;20160;-66
2023/08/29 02:02:13;;;;;;;12.88;8.93;;;11.40;99.90;;;;;;5025684;28;20522;-65
2023/08/29 02:04:39;;;;;;;13.82;9.07;;;11.40;99.90;;;;;;5025931;28;20499;-64
2023/08/29 02:07:05;;;;;;;11.23;9.73;;;11.30;99.90;;;;;;5024820;28;20052;-65
2023/08/29 02:09:31;;;;;;;11.60;9.60;;;11.40;99.90;;;;;;5008101;28;20068;-64
2023/08/29 02:11:57;;;;;;;12.25;9.82;;;11.20;99.90;;;;;;5007594;28;20061;-65
2023/08/29 02:14:23;;;;;;;12.27;8.85;;;11.30;99.90;;;;;;5008282;28;20049;-64
2023/08/29 02:16:48;;;;;;;10.75;8.85;;;11.20;99.90;;;;;;5006510;28;20026;-66
2023/08/29 02:19:14;;;;;;;11.05;9.38;;;11.30;99.90;;;;;;5024165;28;20083;-65
2023/08/29 02:21:39;;;;;;;10.70;8.50;;;11.20;99.90;;;;;;5025598;28;20073;-64
2023/08/29 02:24:05;;;;;;;10.70;8.77;;;11.30;99.90;;;;;;5025312;28;20045;-65
2023/08/29 02:26:31;;;;;;;11.43;9.43;;;11.20;99.90;;;;;;5007375;28;20506;-64
2023/08/29 02:28:57;;;;;;;10.90;9.30;;;11.10;99.90;;;;;;5007188;28;20045;-65
2023/08/29 02:31:23;;;;;;;10.10;9.05;;;11.20;99.90;;;;;;5024303;28;20046;-64
2023/08/29 02:33:48;;;;;;;14.18;9.40;;;11.20;99.90;;;;;;4990193;28;20346;-65
2023/08/29 02:36:14;;;;;;;11.35;9.20;;;11.10;99.90;;;;;;5007082;28;20372;-65
2023/08/29 02:38:39;;;;;;;11.48;9.20;;;11.00;99.90;;;;;;5024574;28;20052;-63
2023/08/29 02:41:06;;;;;;;9.50;8.45;;;11.00;99.90;;;;;;5024317;28;20064;-64
2023/08/29 02:43:32;;;;;;;12.23;8.85;;;10.90;99.90;;;;;;5008167;28;20042;-64
2023/08/29 02:45:58;;;;;;;10.75;9.07;;;11.00;99.90;;;;;;5024594;28;20404;-64
2023/08/29 02:48:24;;;;;;;9.65;8.40;;;10.90;99.90;;;;;;5024075;28;20249;-64
2023/08/29 02:50:50;;;;;;;11.82;9.20;;;10.90;99.90;;;;;;5023465;28;20089;-67
2023/08/29 02:53:20;;;;;;;12.50;9.50;;;10.90;99.90;;;;;;5007989;28;20664;-64
2023/08/29 02:55:48;;;;;;;13.45;10.10;;;11.10;99.90;;;;;;5023726;28;20372;-64
2023/08/29 02:58:15;;;;;;;9.90;8.15;;;10.90;99.90;;;;;;5022985;28;20107;-64
2023/08/29 03:00:43;;;;;;;12.48;8.48;;;10.90;99.90;;;;;;5022262;28;20537;-65
2023/08/29 03:03:09;;;;;;;13.35;9.07;;;10.90;99.90;;;;;;5023232;28;20049;-65
2023/08/29 03:05:35;;;;;;;11.70;9.15;;;10.80;99.90;;;;;;5007314;28;20129;-66
2023/08/29 03:08:03;;;;;;;11.65;9.00;;;10.80;99.90;;;;;;5021105;28;20116;-66
2023/08/29 03:10:30;;;;;;;13.05;8.90;;;10.70;99.90;;;;;;5001917;28;20439;-64
2023/08/29 03:12:56;;;;;;;10.65;9.52;;;10.90;99.90;;;;;;5023294;28;20484;-64
2023/08/29 03:15:22;;;;;;;15.38;9.20;;;10.80;99.90;;;;;;4990960;28;20047;-64
2023/08/29 03:17:50;;;;;;;12.70;9.15;;;10.80;99.90;;;;;;5023264;28;20069;-65
2023/08/29 03:20:15;;;;;;;12.88;9.40;;;10.70;99.90;;;;;;5004832;28;20056;-65
2023/08/29 03:22:41;;;;;;;11.77;8.75;;;10.80;99.90;;;;;;5023909;28;20069;-64
2023/08/29 03:25:07;;;;;;;11.18;8.73;;;10.70;99.90;;;;;;5023875;28;20847;-67
2023/08/29 03:27:33;;;;;;;12.70;9.60;;;10.80;99.90;;;;;;5007434;28;20506;-64
2023/08/29 03:30:12;;;;;;;10.82;9.65;;;10.80;99.90;;;;;;5006584;28;20481;-64
2023/08/29 03:32:38;;;;;;;15.20;9.43;;;10.70;99.90;;;;;;5024722;28;20896;-64
2023/08/29 03:35:05;;;;;;;15.35;9.63;;;10.80;99.90;;;;;;5022373;28;20071;-66
2023/08/29 03:37:30;;;;;;;13.48;9.77;;;10.60;99.90;;;;;;5023880;28;20072;-65
2023/08/29 03:39:56;;;;;;;10.10;9.00;;;10.70;99.90;;;;;;5025550;28;20522;-65
2023/08/29 03:42:22;;;;;;;11.73;9.32;;;10.70;99.90;;;;;;5026063;28;20050;-64
2023/08/29 03:44:48;;;;;;;12.57;9.30;;;10.70;99.90;;;;;;5023342;28;20538;-66
2023/08/29 03:47:13;;;;;;;11.50;8.52;;;10.80;99.90;;;;;;5024606;28;20091;-67
2023/08/29 03:49:39;;;;;;;12.00;8.18;;;10.70;98.70;;;;;;5000817;28;20053;-64
2023/08/29 03:52:05;;;;;;;10.02;8.10;;;10.60;97.40;;;;;;5023079;28;20038;-65
2023/08/29 03:54:30;;;;;;;11.98;8.40;;;10.60;91.70;;;;;;5002861;28;20187;-64
2023/08/29 03:56:56;;;;;;;9.10;7.75;;;10.70;93.30;;;;;;5023669;28;20120;-66
2023/08/29 03:59:22;;;;;;;10.68;8.60;;;10.60;92.30;;;;;;5023031;28;21180;-66
2023/08/29 04:01:47;;;;;;;11.50;8.38;;;10.50;90.80;;;;;;5024128;28;20518;-65
2023/08/29 04:04:13;;;;;;;12.43;9.13;;;10.70;99.90;;;;;;5025233;28;20395;-64
2023/08/29 04:06:39;;;;;;;11.30;9.02;;;10.60;99.90;;;;;;5007183;28;20050;-64
2023/08/29 04:09:08;;;;;;;13.02;9.35;;;10.70;99.90;;;;;;5023233;28;20042;-65
2023/08/29 04:11:34;;;;;;;13.57;9.43;;;10.50;99.90;;;;;;4994055;28;20046;-65
2023/08/29 04:14:01;;;;;;;12.70;8.70;;;10.50;99.90;;;;;;5004278;28;20539;-64
2023/08/29 04:16:26;;;;;;;16.63;9.88;;;10.60;99.90;;;;;;5003777;28;20034;-65
2023/08/29 04:18:52;;;;;;;13.13;8.25;;;10.50;99.90;;;;;;5005066;28;20396;-64
2023/08/29 04:21:18;;;;;;;12.98;9.57;;;10.50;99.90;;;;;;5003793;28;20029;-65
2023/08/29 04:23:43;;;;;;;10.95;9.02;;;10.40;99.90;;;;;;4986983;28;20084;-65
2023/08/29 04:26:09;;;;;;;12.77;9.63;;;10.40;99.90;;;;;;4987491;28;20050;-66
2023/08/29 04:28:35;;;;;;;15.65;11.27;;;10.30;99.90;;;;;;4987240;28;20076;-65
2023/08/29 04:31:11;;;;;;;14.88;10.60;;;10.40;99.90;;;;;;5002479;28;20038;-64
2023/08/29 04:33:39;;;;;;;18.13;12.07;;;10.20;99.90;;;;;;5004707;28;20058;-65
2023/08/29 04:36:04;;;;;;;14.45;10.93;;;10.20;99.90;;;;;;4987640;28;20038;-64
2023/08/29 04:38:31;;;;;;;13.68;10.75;;;10.20;99.90;;;;;;4986484;28;20400;-65
2023/08/29 04:41:18;;;;;;;14.02;10.27;;;10.30;99.90;;;;;;5004068;28;20152;-64
2023/08/29 04:43:44;;;;;;;14.52;11.23;;;10.30;99.90;;;;;;5003124;28;20129;-65
2023/08/29 04:46:09;;;;;;;18.27;12.73;;;10.40;99.90;;;;;;5004656;28;20168;-64
2023/08/29 04:48:35;;;;;;;14.57;10.68;;;10.50;99.90;;;;;;5003546;28;20044;-67
2023/08/29 04:51:04;;;;;;;13.23;10.57;;;10.40;99.90;;;;;;5003693;28;20042;-64
2023/08/29 04:53:30;;;;;;;16.58;12.70;;;10.40;99.90;;;;;;5002379;28;20088;-65
2023/08/29 04:56:03;;;;;;;21.13;11.63;;;10.50;99.90;;;;;;5003102;28;20054;-64
2023/08/29 04:58:29;;;;;;;;;;;10.40;99.90;;;;;;5013845;28;20041;-65
2023/08/29 05:00:56;;;;;;;14.02;10.60;;;10.50;99.90;;;;;;5008082;28;20570;-64
2023/08/29 05:03:41;;;;;;;19.17;12.32;;;10.40;99.90;;;;;;4991308;28;20045;-64
2023/08/29 05:06:08;;;;;;;23.10;13.93;;;10.30;99.90;;;;;;5007043;28;20041;-64
2023/08/29 05:08:36;;;;;;;22.85;12.35;;;10.30;99.90;;;;;;5006791;28;20052;-68
2023/08/29 05:11:02;;;;;;;18.08;12.35;;;10.50;99.90;;;;;;5011814;28;20073;-65
2023/08/29 05:13:28;;;;;;;22.58;13.13;;;10.40;99.90;;;;;;5007579;28;20041;-64
2023/08/29 05:15:54;;;;;;;22.17;15.23;;;10.60;99.90;;;;;;5007218;28;20042;-64
2023/08/29 05:18:20;;;;;;;15.80;11.75;;;10.50;99.90;;;;;;5006579;28;20045;-64
2023/08/29 05:20:48;;;;;;;20.55;12.98;;;10.70;99.90;;;;;;5005937;28;20554;-64
2023/08/29 05:23:14;;;;;;;18.50;13.13;;;10.70;99.90;;;;;;5006436;28;20081;-64
2023/08/29 05:25:40;;;;;;;18.98;12.48;;;10.50;99.90;;;;;;4989684;28;20108;-64
2023/08/29 05:28:05;;;;;;;22.73;13.52;;;10.60;99.90;;;;;;4989531;28;20505;-64
2023/08/29 05:30:31;;;;;;;19.40;13.15;;;10.70;99.90;;;;;;4989965;28;20121;-65
2023/08/29 05:32:57;;;;;;;22.55;13.15;;;10.60;99.90;;;;;;4997406;28;20443;-64
2023/08/29 05:35:23;;;;;;;17.00;12.48;;;10.90;99.90;;;;;;5007343;28;20038;-64
2023/08/29 05:37:48;;;;;;;17.67;11.98;;;11.00;99.90;;;;;;4990928;28;20048;-65
2023/08/29 05:40:14;;;;;;;16.55;12.50;;;10.80;99.90;;;;;;5005970;28;20464;-64
2023/08/29 05:42:40;;;;;;;20.15;13.65;;;10.90;99.90;;;;;;4989309;28;20030;-64
2023/08/29 05:45:06;;;;;;;18.60;13.40;;;11.30;99.90;;;;;;4990537;28;20102;-64
2023/08/29 05:47:31;;;;;;;16.70;12.02;;;11.60;99.90;;;;;;5004154;28;20061;-64
2023/08/29 05:49:57;;;;;;;13.90;10.27;;;11.80;99.90;;;;;;5006481;28;20073;-64
2023/08/29 05:52:26;;;;;;;11.98;8.98;;;12.30;99.90;;;;;;5006525;28;20526;-65
2023/08/29 05:54:52;;;;;;;8.80;7.38;;;12.40;99.90;;;;;;4999303;28;20130;-65
2023/08/29 05:57:17;;;;;;;8.25;6.55;;;12.90;99.90;;;;;;5005889;28;20105;-65
2023/08/29 05:59:43;;;;;;;8.93;6.72;;;13.10;99.90;;;;;;5005266;28;20049;-65
2023/08/29 06:02:09;;;;;;;5.80;5.15;;;13.20;99.90;;;;;;5005268;28;20050;-65
2023/08/29 06:04:34;;;;;;;5.40;4.55;;;13.50;99.90;;;;;;5007062;28;20493;-65
2023/08/29 06:07:00;;;;;;;5.45;4.30;;;13.50;99.90;;;;;;5005633;28;20117;-64
2023/08/29 06:09:26;;;;;;;4.50;3.90;;;13.50;99.90;;;;;;5003918;28;20045;-67
2023/08/29 06:11:52;;;;;;;4.45;3.92;;;13.60;99.90;;;;;;5001212;28;20129;-64
2023/08/29 06:14:17;;;;;;;5.50;3.30;;;13.90;99.90;;;;;;5027081;28;20128;-65
2023/08/29 06:16:43;;;;;;;4.78;3.55;;;14.10;99.90;;;;;;4981868;28;20416;-65
2023/08/29 06:19:09;;;;;;;5.22;2.38;;;14.30;99.90;;;;;;5007498;28;20088;-64
2023/08/29 06:21:34;;;;;;;3.80;2.50;;;14.30;99.90;;;;;;5006152;28;20042;-66
2023/08/29 06:24:00;;;;;;;5.82;2.60;;;14.70;99.90;;;;;;5025888;28;20063;-64
2023/08/29 06:26:26;;;;;;;3.45;2.03;;;14.90;99.90;;;;;;5013165;28;20076;-65
2023/08/29 06:28:51;;;;;;;3.25;1.50;;;15.20;99.90;;;;;;5003906;28;20051;-65
2023/08/29 06:31:17;;;;;;;2.40;1.58;;;15.50;99.90;;;;;;4990080;28;20038;-64
2023/08/29 06:33:43;;;;;;;2.17;1.65;;;15.70;99.90;;;;;;5023189;28;20551;-66
2023/08/29 06:36:09;;;;;;;2.38;1.60;;;15.90;99.90;;;;;;5021496;28;20038;-65
2023/08/29 06:38:36;;;;;;;2.22;1.40;;;16.20;99.90;;;;;;4987740;28;20034;-65
2023/08/29 06:41:04;;;;;;;2.28;1.40;;;16.30;99.90;;;;;;5004729;28;20037;-65
2023/08/29 06:43:30;;;;;;;1.40;1.30;;;16.60;99.90;;;;;;5021434;28;20048;-65
2023/08/29 06:45:56;;;;;;;1.83;1.30;;;16.50;99.90;;;;;;5020556;28;20045;-65
2023/08/29 06:48:21;;;;;;;1.23;1.00;;;16.60;99.90;;;;;;5021054;28;20053;-65
2023/08/29 06:50:47;;;;;;;1.00;0.80;;;16.70;99.90;;;;;;5023443;28;20049;-64
2023/08/29 06:53:13;;;;;;;4.47;0.98;;;17.10;99.90;;;;;;4995233;28;20045;-65
2023/08/29 06:55:38;;;;;;;1.75;1.00;;;17.10;99.90;;;;;;5006797;28;20127;-64
2023/08/29 06:58:23;;;;;;;4.32;1.00;;;17.50;99.90;;;;;;5023397;28;20046;-66
2023/08/29 07:00:49;;;;;;;8.68;1.50;;;17.60;99.90;;;;;;5023365;28;20727;-66
2023/08/29 07:03:15;;;;;;;4.43;1.10;;;17.70;99.90;;;;;;4991250;28;20041;-64
2023/08/29 07:05:41;;;;;;;2.55;0.77;;;17.90;99.90;;;;;;5023000;28;20102;-64
2023/08/29 07:08:07;;;;;;;1.98;0.75;;;18.20;99.90;;;;;;5024083;28;20041;-65
2023/08/29 07:10:33;;;;;;;1.52;0.65;;;18.30;99.90;;;;;;5022381;28;20053;-64
2023/08/29 07:12:59;;;;;;;1.48;0.77;;;18.40;99.90;;;;;;5005043;28;20542;-66
2023/08/29 07:15:27;;;;;;;3.05;0.73;;;18.50;99.90;;;;;;5005332;28;20264;-64
2023/08/29 07:17:53;;;;;;;3.20;0.60;;;18.20;99.90;;;;;;5006615;28;20341;-64
2023/08/29 07:20:19;;;;;;;3.85;0.60;;;18.40;99.90;;;;;;5004890;28;20461;-65
2023/08/29 07:22:45;;;;;;;2.90;0.60;;;18.50;99.90;;;;;;5022329;28;20046;-65
2023/08/29 07:25:12;;;;;;;3.83;0.90;;;18.70;99.90;;;;;;4988851;28;20045;-65
2023/08/29 07:27:38;;;;;;;2.85;0.70;;;18.70;99.90;;;;;;5020800;28;20120;-66
2023/08/29 07:30:04;;;;;;;4.18;0.50;;;19.00;99.90;;;;;;5021857;28;20059;-65
2023/08/29 07:32:30;;;;;;;2.63;0.50;;;19.20;99.90;;;;;;5021318;28;20041;-65
2023/08/29 07:34:58;;;;;;;1.02;0.30;;;19.60;99.90;;;;;;5004275;28;20326;-64
2023/08/29 07:37:24;;;;;;;1.77;0.40;;;19.70;99.90;;;;;;5021863;28;20131;-64
2023/08/29 07:39:50;;;;;;;1.25;0.40;;;19.80;99.90;;;;;;5005134;28;20415;-65
2023/08/29 07:42:16;;;;;;;1.58;0.30;;;19.90;99.90;;;;;;5022681;28;20033;-65
2023/08/29 07:44:43;;;;;;;3.03;0.45;;;19.90;99.90;;;;;;5021623;28;20049;-66
2023/08/29 07:47:09;;;;;;;1.00;0.50;;;19.80;99.90;;;;;;5020989;28;20062;-65
2023/08/29 07:49:35;;;;;;;2.08;0.50;;;19.70;99.90;;;;;;5020844;28;20073;-64
2023/08/29 07:52:01;;;;;;;1.02;0.40;;;19.70;99.90;;;;;;5005046;28;20042;-65
2023/08/29 07:54:27;;;;;;;0.75;0.30;;;19.80;99.90;;;;;;5020920;28;20104;-66
2023/08/29 07:56:53;;;;;;;2.03;0.35;;;19.90;99.90;;;;;;5021178;28;20681;-65
2023/08/29 07:59:19;;;;;;;1.73;0.30;;;19.80;99.90;;;;;;4986923;28;20041;-67
2023/08/29 08:01:45;;;;;;;1.25;0.20;;;19.80;99.90;;;;;;5020422;28;20041;-65
2023/08/29 08:04:11;;;;;;;0.90;0.30;;;19.80;99.90;;;;;;5022004;28;20056;-66
2023/08/29 08:06:36;;;;;;;3.38;0.30;;;19.70;99.90;;;;;;5022201;28;20079;-65
2023/08/29 08:09:04;;;;;;;1.02;0.20;;;19.80;99.90;;;;;;5022083;28;20084;-65
2023/08/29 08:11:30;;;;;;;0.80;0.20;;;20.00;99.90;;;;;;5006008;28;20057;-66
2023/08/29 08:13:56;;;;;;;0.52;0.10;;;20.20;99.90;;;;;;5025112;28;20065;-65
2023/08/29 08:16:22;;;;;;;0.73;0.20;;;20.20;99.30;;;;;;5023750;28;20324;-65
2023/08/29 08:18:47;;;;;;;1.48;0.10;;;20.50;98.80;;;;;;5008354;28;20511;-65
2023/08/29 08:21:13;;;;;;;0.32;0.10;;;20.50;95.40;;;;;;5023509;28;20126;-65
2023/08/29 08:23:39;;;;;;;0.95;0.20;;;20.70;87.70;;;;;;5024683;28;20064;-65
2023/08/29 08:26:05;;;;;;;0.60;0.10;;;21.00;87.70;;;;;;5007846;28;20052;-65
2023/08/29 08:28:30;;;;;;;1.48;0.10;;;20.60;51.80;;;;;;5023962;28;20127;-65
2023/08/29 08:30:56;;;;;;;1.40;0.10;;;20.70;45.80;;;;;;5024559;28;20040;-65
2023/08/29 08:33:24;;;;;;;1.77;0.10;;;20.60;37.80;;;;;;5024423;28;20309;-65
2023/08/29 08:35:50;;;;;;;1.10;0.13;;;20.70;34.60;;;;;;5041752;28;20045;-66
2023/08/29 08:38:16;;;;;;;0.52;0.20;;;20.70;32.20;;;;;;5041504;28;20171;-65
2023/08/29 08:40:42;;;;;;;1.27;0.20;;;20.90;56.80;;;;;;5023394;28;20048;-64
2023/08/29 08:43:09;;;;;;;0.50;0.20;;;21.10;46.80;;;;;;5023186;28;20241;-64
2023/08/29 08:45:37;;;;;;;1.08;0.30;;;21.00;29.50;;;;;;5041368;28;20083;-65
2023/08/29 08:48:03;;;;;;;1.33;0.30;;;21.00;39.70;;;;;;5022839;28;20124;-64
2023/08/29 08:50:29;;;;;;;0.85;0.20;;;21.00;43.50;;;;;;5006125;28;20102;-63
2023/08/29 08:53:02;;;;;;;0.82;0.30;;;20.90;34.70;;;;;;5022569;28;20052;-64
2023/08/29 08:55:49;;;;;;;0.80;0.30;;;21.00;25.10;;;;;;5022565;28;20048;-64
2023/08/29 08:58:15;;;;;;;1.95;0.30;;;21.10;30.30;;;;;;5006043;28;20040;-65
2023/08/29 09:00:41;;;;;;;1.83;0.30;;;21.30;30.80;;;;;;5040787;28;20143;-63
2023/08/29 09:03:07;;;;;;;1.33;0.40;;;21.50;21.60;;;;;;5024143;28;20488;-64
2023/08/29 09:05:34;;;;;;;1.13;0.30;;;21.70;19.30;;;;;;5005579;28;20041;-63
2023/08/29 09:08:00;;;;;;;0.73;0.22;;;21.80;9.60;;;;;;5040717;28;20045;-63
2023/08/29 09:10:33;;;;;;;0.80;0.20;;;21.80;13.60;;;;;;5023581;28;20091;-63
2023/08/29 09:12:59;;;;;;;0.10;0.00;;;21.80;3.20;;;;;;5041956;28;20568;-67
2023/08/29 09:15:26;;;;;;;0.40;0.10;;;21.60;1.00;;;;;;5007614;28;20049;-66
2023/08/29 09:17:53;;;;;;;0.90;0.10;;;21.00;1.00;;;;;;5024302;28;20041;-66
2023/08/29 09:20:21;;;;;;;1.30;0.30;;;21.20;1.00;;;;;;5006933;28;20132;-65
2023/08/29 09:22:47;;;;;;;1.52;0.30;;;21.50;2.00;;;;;;5023932;28;20577;-63
2023/08/29 09:25:14;;;;;;;1.13;0.20;;;21.80;6.40;;;;;;5041546;28;20078;-64
2023/08/29 09:27:41;;;;;;;1.63;0.10;;;22.20;1.00;;;;;;5006735;28;20088;-63
2023/08/29 09:30:08;;;;;;;0.52;0.10;;;22.20;1.00;;;;;;5008110;28;20114;-63
2023/08/29 09:32:34;;;;;;;0.68;0.15;;;22.10;1.00;;;;;;5023434;28;20522;-64
2023/08/29 09:35:00;;;;;;;0.65;0.10;;;21.90;1.00;;;;;;5041706;28;20045;-64
2023/08/29 09:37:26;;;;;;;0.82;0.28;;;21.50;1.00;;;;;;5041952;28;20549;-64
2023/08/29 09:39:55;;;;;;;1.95;0.32;;;21.20;1.00;;;;;;5023707;28;20049;-66
2023/08/29 09:42:22;;;;;;;0.85;0.20;;;21.30;1.00;;;;;;5043186;28;20540;-64
2023/08/29 09:45:25;;;;;;;0.55;0.20;;;21.80;1.00;;;;;;5027853;28;20041;-64
2023/08/29 09:47:52;;;;;;;;;;;22.40;1.00;;;;;;5028073;28;20061;-65
2023/08/29 09:50:18;;;;;;;0.95;0.20;;;22.90;1.00;;;;;;5028284;28;19916;-66
2023/08/29 09:52:44;;;;;;;1.15;0.22;;;23.20;1.00;;;;;;5044897;28;20049;-65
2023/08/29 09:55:13;;;;;;;0.63;0.10;;;23.90;1.00;;;;;;5026890;28;20053;-64
2023/08/29 09:57:40;;;;;;;0.40;0.17;;;23.90;1.00;;;;;;5026615;28;20106;-66
2023/08/29 10:00:09;;;;;;;0.73;0.20;;;23.30;1.00;;;;;;5026562;28;20052;-64
2023/08/29 10:02:36;;;;;;;0.50;0.20;;;22.90;1.00;;;;;;5026853;28;20045;-65
2023/08/29 10:05:06;;;;;;;0.55;0.10;;;22.30;1.00;;;;;;5027201;28;20047;-66
2023/08/29 10:07:42;;;;;;;1.35;0.10;;;22.00;1.00;;;;;;5026298;28;20040;-64
2023/08/29 10:10:09;;;;;;;1.52;0.20;;;22.20;1.00;;;;;;5026008;28;20048;-65
2023/08/29 10:12:36;;;;;;;0.90;0.20;;;22.30;1.00;;;;;;4990440;28;20057;-65
2023/08/29 10:15:04;;;;;;;0.95;0.20;;;22.10;1.00;;;;;;5024560;28;20041;-66
2023/08/29 10:17:40;;;;;;;1.02;0.20;;;21.80;1.00;;;;;;5023038;28;20440;-63
2023/08/29 10:20:09;;;;;;;0.77;0.20;;;21.90;1.00;;;;;;5023345;28;20075;-64
2023/08/29 10:22:37;;;;;;;1.08;0.30;;;21.70;1.00;;;;;;5022667;28;20046;-67
2023/08/29 10:25:03;;;;;;;0.60;0.20;;;22.00;1.00;;;;;;5006822;28;20061;-66
2023/08/29 10:27:30;;;;;;;0.75;0.20;;;22.10;1.00;;;;;;5023091;28;20162;-65
2023/08/29 10:29:58;;;;;;;1.33;0.30;;;22.20;1.00;;;;;;5022945;28;20164;-65
2023/08/29 10:32:25;;;;;;;0.88;0.20;;;22.60;1.00;;;;;;5023052;28;20037;-65
2023/08/29 10:34:51;;;;;;;0.85;0.20;;;23.20;1.00;;;;;;5023701;28;20507;-64
2023/08/29 10:37:20;;;;;;;0.80;0.20;;;22.60;1.00;;;;;;5022783;28;20049;-65
2023/08/29 10:39:50;;;;;;;1.65;0.20;;;23.00;1.00;;;;;;5006875;28;20049;-66
2023/08/29 10:42:16;;;;;;;0.63;0.20;;;23.50;1.00;;;;;;5005124;28;20049;-65
2023/08/29 10:44:44;;;;;;;1.20;0.22;;;24.40;1.00;;;;;;5024604;28;20057;-65
2023/08/29 10:47:20;;;;;;;0.90;0.30;;;23.70;1.00;;;;;;5022819;28;20050;-65
2023/08/29 10:49:47;;;;;;;0.88;0.20;;;23.70;1.00;;;;;;4991533;28;20133;-66
2023/08/29 10:52:14;;;;;;;2.05;0.30;;;23.10;1.00;;;;;;5024473;28;20081;-65
2023/08/29 10:54:40;;;;;;;0.77;0.20;;;23.50;1.00;;;;;;5014285;28;20053;-66
2023/08/29 10:57:29;;;;;;;0.93;0.20;;;23.60;1.00;;;;;;4995274;28;20558;-66
2023/08/29 10:59:56;;;;;;;1.02;0.20;;;24.00;1.00;;;;;;5001373;28;20049;-67
2023/08/29 11:02:29;;;;;;;0.40;0.20;;;24.40;1.00;;;;;;4988734;28;20128;-66
2023/08/29 11:05:03;;;;;;;1.35;0.20;;;24.00;1.00;;;;;;5011260;28;20251;-66
2023/08/29 11:07:31;;;;;;;1.52;0.17;;;23.50;1.00;;;;;;5010870;28;20060;-66
2023/08/29 11:10:22;;;;;;;0.20;0.10;;;23.10;1.00;;;;;;4995189;28;20053;-67
2023/08/29 11:13:10;;;;;;;0.80;0.10;;;23.10;1.00;;;;;;4994355;28;20061;-67
2023/08/29 11:15:48;;;;;;;0.82;0.10;;;23.50;1.00;;;;;;5011394;28;20053;-66
2023/08/29 11:18:32;;;;;;;1.90;0.20;;;24.60;1.00;;;;;;5011069;28;20231;-66
2023/08/29 11:21:05;;;;;;;0.50;0.20;;;24.70;1.00;;;;;;5011510;28;20436;-67
2023/08/29 11:23:42;;;;;;;1.48;0.20;;;24.30;1.00;;;;;;5011452;28;20492;-66
2023/08/29 11:26:08;;;;;;;1.00;0.20;;;23.40;1.00;;;;;;5011182;28;20081;-66
2023/08/29 11:28:45;;;;;;;1.98;0.30;;;22.60;1.00;;;;;;5011002;28;20056;-66
2023/08/29 11:31:12;;;;;;;1.95;0.20;;;22.80;1.00;;;;;;5012657;28;20503;-66
2023/08/29 11:33:38;;;;;;;0.95;0.20;;;22.90;1.00;;;;;;5010971;28;20448;-67
2023/08/29 11:36:09;;;;;;;1.25;0.30;;;22.60;1.00;;;;;;4994805;28;20041;-66
2023/08/29 11:38:34;;;;;;;1.58;0.20;;;23.00;1.00;;;;;;4994514;28;20235;-67
2023/08/29 11:41:05;;;;;;;2.08;0.30;;;23.20;1.00;;;;;;4994899;28;20423;-67
2023/08/29 11:43:32;;;;;;;0.40;0.25;;;23.60;1.00;;;;;;5010521;28;20416;-67
2023/08/29 11:46:01;;;;;;;0.70;0.30;;;23.70;1.00;;;;;;5011459;28;20060;-67
2023/08/29 11:48:32;;;;;;;1.02;0.30;;;23.80;1.00;;;;;;4994956;28;20375;-67
2023/08/29 11:51:03;;;;;;;1.73;0.40;;;23.40;1.00;;;;;;5010881;28;20049;-67
2023/08/29 11:53:32;;;;;;;0.77;0.30;;;23.30;1.00;;;;;;4993763;28;20054;-66
2023/08/29 11:56:00;;;;;;;1.02;0.40;;;22.90;1.00;;;;;;4994092;28;20417;-66
2023/08/29 11:58:36;;;;;;;2.17;0.40;;;22.80;1.00;;;;;;5010854;28;20033;-67
2023/08/29 12:01:07;;;;;;;1.38;0.40;;;22.50;1.00;;;;;;4977763;28;20041;-67
2023/08/29 12:03:37;;;;;;;1.90;0.40;;;22.40;1.00;;;;;;5010006;28;20519;-67
2023/08/29 12:06:05;;;;;;;1.17;0.40;;;22.30;1.00;;;;;;5010824;28;20053;-67
2023/08/29 12:08:44;;;;;;;1.30;0.38;;;22.40;1.00;;;;;;5010806;28;20056;-67
2023/08/29 12:11:13;;;;;;;1.42;0.40;;;23.10;1.00;;;;;;5011095;28;20579;-67
2023/08/29 12:13:42;;;;;;;1.38;0.45;;;23.30;1.00;;;;;;4978076;28;20057;-67
2023/08/29 12:16:16;;;;;;;0.98;0.40;;;24.20;1.00;;;;;;5010641;28;20422;-67
2023/08/29 12:18:42;;;;;;;1.42;0.32;;;25.10;1.00;;;;;;5012742;28;20525;-66
2023/08/29 12:21:20;;;;;;;1.17;0.47;;;25.30;1.00;;;;;;5012373;28;20280;-67
2023/08/29 12:23:46;;;;;;;1.13;0.50;;;25.10;1.00;;;;;;4994116;28;20500;-68
2023/08/29 12:26:14;;;;;;;0.88;0.40;;;25.30;1.00;;;;;;5009570;28;20253;-67
2023/08/29 12:28:40;;;;;;;0.80;0.32;;;25.20;1.00;;;;;;5010293;28;20053;-67
2023/08/29 12:31:07;;;;;;;1.33;0.50;;;24.80;1.00;;;;;;5010277;28;20119;-67
2023/08/29 12:33:34;;;;;;;3.55;0.30;;;24.40;1.00;;;;;;5010113;28;20520;-67
2023/08/29 12:36:00;;;;;;;1.15;0.40;;;24.40;1.00;;;;;;5010042;28;20064;-67
2023/08/29 12:38:26;;;;;;;0.50;0.20;;;24.30;1.00;;;;;;5011650;28;20037;-66
2023/08/29 12:40:53;;;;;;;0.70;0.20;;;24.00;1.00;;;;;;5010315;28;20049;-66
2023/08/29 12:43:19;;;;;;;1.60;0.20;;;23.90;1.00;;;;;;5009972;28;20061;-65
2023/08/29 12:45:45;;;;;;;1.05;0.20;;;23.60;1.00;;;;;;5010601;28;20064;-66
2023/08/29 12:48:11;;;;;;;0.90;0.20;;;23.40;1.00;;;;;;4993495;28;20071;-66